createdAt,value
2023-03-29T00:02:03.154Z,0.65
2023-03-29T00:04:30.352Z,0.80
2023-03-29T00:06:57.808Z,0.75
2023-03-29T00:09:26.731Z,0.70
2023-03-29T00:14:21.097Z,0.73
2023-03-29T00:16:48.892Z,0.70
2023-03-29T00:19:16.193Z,0.63
2023-03-29T00:21:43.340Z,0.70
2023-03-29T00:24:10.479Z,0.80
2023-03-29T00:26:37.709Z,0.57
2023-03-29T00:29:04.886Z,0.80
2023-03-29T00:31:32.280Z,0.93
2023-03-29T00:33:59.434Z,0.90
2023-03-29T00:36:26.607Z,0.90
2023-03-29T00:38:53.732Z,0.70
2023-03-29T00:41:21.568Z,0.70
2023-03-29T00:44:06.867Z,0.80
2023-03-29T00:46:35.050Z,0.80
2023-03-29T00:49:08.086Z,0.70
2023-03-29T00:51:37.355Z,0.75
2023-03-29T00:54:07.170Z,0.70
2023-03-29T00:56:37.506Z,0.80
2023-03-29T00:59:10.844Z,0.70
2023-03-29T01:01:48.192Z,0.88
2023-03-29T01:04:19.381Z,0.88
2023-03-29T01:07:07.047Z,0.93
2023-03-29T01:09:35.959Z,0.70
2023-03-29T01:12:07.061Z,0.80
2023-03-29T01:14:36.650Z,0.88
2023-03-29T01:17:04.611Z,0.90
2023-03-29T01:19:36.223Z,0.68
2023-03-29T01:22:03.816Z,0.63
2023-03-29T01:24:33.692Z,0.70
2023-03-29T01:27:09.500Z,0.70
2023-03-29T01:29:45.586Z,0.77
2023-03-29T01:32:18.021Z,0.70
2023-03-29T01:34:48.259Z,0.60
2023-03-29T01:37:24.574Z,0.70
2023-03-29T01:39:52.454Z,0.80
2023-03-29T01:42:22.365Z,0.90
2023-03-29T01:44:53.464Z,0.80
2023-03-29T01:47:26.150Z,0.80
2023-03-29T01:49:57.305Z,0.75
2023-03-29T01:52:26.683Z,0.70
2023-03-29T01:54:55.778Z,0.60
2023-03-29T01:57:25.148Z,0.90
2023-03-29T01:59:53.526Z,0.70
2023-03-29T02:02:21.558Z,0.70
2023-03-29T02:04:51.779Z,0.90
2023-03-29T02:07:21.724Z,0.70
2023-03-29T02:09:50.193Z,0.75
2023-03-29T02:12:17.648Z,0.70
2023-03-29T02:14:45.079Z,0.70
2023-03-29T02:17:15.350Z,0.52
2023-03-29T02:19:42.503Z,0.70
2023-03-29T02:22:10.366Z,0.80
2023-03-29T02:24:38.105Z,0.57
2023-03-29T02:27:06.148Z,0.80
2023-03-29T02:29:33.526Z,0.80
2023-03-29T02:32:05.117Z,0.70
2023-03-29T02:34:38.885Z,0.73
2023-03-29T02:37:10.349Z,0.80
2023-03-29T02:39:38.340Z,0.73
2023-03-29T02:42:06.989Z,0.68
2023-03-29T02:44:36.595Z,0.52
2023-03-29T02:47:14.613Z,0.90
2023-03-29T02:49:41.765Z,0.80
2023-03-29T02:52:11.091Z,0.70
2023-03-29T02:54:43.056Z,0.70
2023-03-29T02:57:10.751Z,0.73
2023-03-29T02:59:38.649Z,0.60
2023-03-29T03:02:06.152Z,0.65
2023-03-29T03:04:35.535Z,0.60
2023-03-29T03:07:05.117Z,0.88
2023-03-29T03:09:32.203Z,0.68
2023-03-29T03:11:59.336Z,0.60
2023-03-29T03:14:28.189Z,0.70
2023-03-29T03:16:55.350Z,0.70
2023-03-29T03:19:22.484Z,0.98
2023-03-29T03:21:49.620Z,0.70
2023-03-29T03:24:17.754Z,0.60
2023-03-29T03:26:46.357Z,0.70
2023-03-29T03:29:14.144Z,0.80
2023-03-29T03:31:41.414Z,0.60
2023-03-29T03:34:08.618Z,0.68
2023-03-29T03:36:36.041Z,0.70
2023-03-29T03:39:05.796Z,0.70
2023-03-29T03:41:33.162Z,0.70
2023-03-29T03:44:00.874Z,0.63
2023-03-29T03:46:29.686Z,0.70
2023-03-29T03:51:24.864Z,0.70
2023-03-29T03:53:52.147Z,0.70
2023-03-29T03:56:20.468Z,0.60
2023-03-29T03:58:47.702Z,1.00
2023-03-29T04:01:14.903Z,0.68
2023-03-29T04:03:42.187Z,0.70
2023-03-29T04:06:09.838Z,0.60
2023-03-29T04:08:37.135Z,0.80
2023-03-29T04:11:04.638Z,0.80
2023-03-29T04:13:31.955Z,0.70
2023-03-29T04:16:01.411Z,0.60
2023-03-29T04:18:29.061Z,0.65
2023-03-29T04:20:56.217Z,0.90
2023-03-29T04:23:23.325Z,0.70
2023-03-29T04:25:50.401Z,0.60
2023-03-29T04:28:17.568Z,0.70
2023-03-29T04:30:47.361Z,1.05
2023-03-29T04:33:14.520Z,0.90
2023-03-29T04:35:42.459Z,0.60
2023-03-29T04:38:12.361Z,0.80
2023-03-29T04:40:39.563Z,0.70
2023-03-29T04:43:06.705Z,0.63
2023-03-29T04:45:33.898Z,0.80
2023-03-29T04:48:01.192Z,0.88
2023-03-29T04:50:28.600Z,1.00
2023-03-29T04:52:55.801Z,1.02
2023-03-29T04:55:22.982Z,0.90
2023-03-29T04:57:50.226Z,0.90
2023-03-29T05:00:17.640Z,0.95
2023-03-29T05:02:45.858Z,0.80
2023-03-29T05:05:13.954Z,0.93
2023-03-29T05:07:41.226Z,0.82
2023-03-29T05:10:09.275Z,0.85
2023-03-29T05:12:36.752Z,1.08
2023-03-29T05:15:04.814Z,0.80
2023-03-29T05:17:32.057Z,0.80
2023-03-29T05:19:59.240Z,0.65
2023-03-29T05:22:26.397Z,1.35
2023-03-29T05:24:53.998Z,0.70
2023-03-29T05:27:22.968Z,1.10
2023-03-29T05:32:17.304Z,0.80
2023-03-29T05:34:45.203Z,0.90
2023-03-29T05:37:13.373Z,1.00
2023-03-29T05:39:40.579Z,0.90
2023-03-29T05:42:07.836Z,0.93
2023-03-29T05:44:35.169Z,0.88
2023-03-29T05:47:02.397Z,0.82
2023-03-29T05:49:29.490Z,0.90
2023-03-29T05:51:59.781Z,1.02
2023-03-29T05:54:27.246Z,1.00
2023-03-29T05:56:54.410Z,0.80
2023-03-29T05:59:23.618Z,0.90
2023-03-29T06:01:51.981Z,0.70
2023-03-29T06:04:19.367Z,0.98
2023-03-29T06:06:46.787Z,0.90
2023-03-29T06:09:13.936Z,0.77
2023-03-29T06:11:41.317Z,1.00
2023-03-29T06:14:08.518Z,0.80
2023-03-29T06:16:36.426Z,1.00
2023-03-29T06:19:03.760Z,1.13
2023-03-29T06:21:31.610Z,1.00
2023-03-29T06:23:58.769Z,0.80
2023-03-29T06:26:27.808Z,0.90
2023-03-29T06:28:55.000Z,0.75
2023-03-29T06:31:22.250Z,0.70
2023-03-29T06:33:49.541Z,1.10
2023-03-29T06:36:16.956Z,0.80
2023-03-29T06:38:46.055Z,0.80
2023-03-29T06:41:13.621Z,0.80
2023-03-29T06:43:40.808Z,0.90
2023-03-29T06:46:15.035Z,0.85
2023-03-29T06:48:42.277Z,0.90
2023-03-29T06:51:09.370Z,0.80
2023-03-29T06:53:36.741Z,0.85
2023-03-29T06:56:09.184Z,1.00
2023-03-29T06:58:38.254Z,0.95
2023-03-29T07:01:07.145Z,0.68
2023-03-29T07:06:04.474Z,1.00
2023-03-29T07:08:31.846Z,0.60
2023-03-29T07:10:59.604Z,0.82
2023-03-29T07:13:27.661Z,0.73
2023-03-29T07:15:54.871Z,0.70
2023-03-29T07:18:22.128Z,0.80
2023-03-29T07:20:49.335Z,1.15
2023-03-29T07:23:17.457Z,0.88
2023-03-29T07:25:44.860Z,1.10
2023-03-29T07:28:12.025Z,1.48
2023-03-29T07:30:39.259Z,0.90
2023-03-29T07:33:06.479Z,0.70
2023-03-29T07:35:33.820Z,0.80
2023-03-29T07:38:01.139Z,0.82
2023-03-29T07:40:28.359Z,0.82
2023-03-29T07:42:56.753Z,0.90
2023-03-29T07:45:26.860Z,1.00
2023-03-29T07:47:57.187Z,0.85
2023-03-29T07:52:51.557Z,0.77
2023-03-29T07:55:18.776Z,0.93
2023-03-29T07:57:46.325Z,0.70
2023-03-29T08:00:17.507Z,0.80
2023-03-29T08:02:45.648Z,0.93
2023-03-29T08:05:14.258Z,0.90
2023-03-29T08:07:42.417Z,0.80
2023-03-29T08:10:11.006Z,0.85
2023-03-29T08:12:56.764Z,1.10
2023-03-29T08:15:23.953Z,0.60
2023-03-29T08:17:51.113Z,0.70
2023-03-29T08:20:18.365Z,0.80
2023-03-29T08:22:45.705Z,0.98
2023-03-29T08:25:12.936Z,0.90
2023-03-29T08:27:40.140Z,0.82
2023-03-29T08:30:09.464Z,0.77
2023-03-29T08:32:37.504Z,0.77
2023-03-29T08:35:06.726Z,0.82
2023-03-29T08:37:34.103Z,0.80
2023-03-29T08:40:01.548Z,0.82
2023-03-29T08:42:34.583Z,0.65
2023-03-29T08:45:17.306Z,0.68
2023-03-29T08:47:44.501Z,0.90
2023-03-29T08:50:15.791Z,0.80
2023-03-29T08:52:48.544Z,0.80
2023-03-29T08:55:35.966Z,0.80
2023-03-29T09:00:48.540Z,0.95
2023-03-29T09:03:21.310Z,0.90
2023-03-29T09:05:49.849Z,0.80
2023-03-29T09:08:18.215Z,0.77
2023-03-29T09:11:09.754Z,0.68
2023-03-29T09:14:03.391Z,0.60
2023-03-29T09:16:34.371Z,0.80
2023-03-29T09:19:10.215Z,0.80
2023-03-29T09:21:46.785Z,0.80
2023-03-29T09:24:29.557Z,1.10
2023-03-29T09:27:10.112Z,0.70
2023-03-29T09:29:55.598Z,0.90
2023-03-29T09:32:24.084Z,0.90
2023-03-29T09:35:03.681Z,0.70
2023-03-29T09:37:33.385Z,0.80
2023-03-29T09:40:03.841Z,0.82
2023-03-29T09:42:32.350Z,0.90
2023-03-29T09:45:08.522Z,0.90
2023-03-29T09:47:39.829Z,1.02
2023-03-29T09:50:30.954Z,0.80
2023-03-29T09:52:59.092Z,0.70
2023-03-29T09:55:32.307Z,0.90
2023-03-29T09:58:01.586Z,1.00
2023-03-29T10:00:28.832Z,0.80
2023-03-29T10:02:57.813Z,0.60
2023-03-29T10:05:25.964Z,0.73
2023-03-29T10:07:54.362Z,0.98
2023-03-29T10:10:30.678Z,0.90
2023-03-29T10:12:59.871Z,0.80
2023-03-29T10:15:30.883Z,0.80
2023-03-29T10:17:59.029Z,1.10
2023-03-29T10:20:26.285Z,1.25
2023-03-29T10:22:58.300Z,1.00
2023-03-29T10:25:27.594Z,1.45
2023-03-29T10:27:56.107Z,2.42
2023-03-29T10:30:24.442Z,1.50
2023-03-29T10:32:59.773Z,1.33
2023-03-29T10:35:41.659Z,1.50
2023-03-29T10:38:16.557Z,1.58
2023-03-29T10:40:48.226Z,1.25
2023-03-29T10:43:22.540Z,1.40
2023-03-29T10:45:51.200Z,2.00
2023-03-29T10:48:19.432Z,1.90
2023-03-29T10:50:53.267Z,2.00
2023-03-29T10:53:22.718Z,2.15
2023-03-29T10:56:03.436Z,2.10
2023-03-29T10:58:33.454Z,2.13
2023-03-29T11:01:01.961Z,2.33
2023-03-29T11:03:32.595Z,2.05
2023-03-29T11:06:04.183Z,2.30
2023-03-29T11:08:39.006Z,2.17
2023-03-29T11:11:21.824Z,2.35
2023-03-29T11:13:59.763Z,2.15
2023-03-29T11:16:45.518Z,2.72
2023-03-29T11:19:21.808Z,2.50
2023-03-29T11:22:05.258Z,2.85
2023-03-29T11:24:46.903Z,2.90
2023-03-29T11:27:17.132Z,2.60
2023-03-29T11:29:47.456Z,2.95
2023-03-29T11:32:33.572Z,2.90
2023-03-29T11:35:10.031Z,3.28
2023-03-29T11:37:55.988Z,2.88
2023-03-29T11:40:41.996Z,2.90
2023-03-29T11:43:14.038Z,2.80
2023-03-29T11:45:46.968Z,3.30
2023-03-29T11:48:17.755Z,2.90
2023-03-29T11:50:44.974Z,3.25
2023-03-29T11:53:16.104Z,3.03
2023-03-29T11:55:43.616Z,3.35
2023-03-29T11:58:13.844Z,3.20
2023-03-29T12:00:40.964Z,3.47
2023-03-29T12:03:28.667Z,2.97
2023-03-29T12:06:14.868Z,2.97
2023-03-29T12:08:45.712Z,3.17
2023-03-29T12:11:31.543Z,3.28
2023-03-29T12:14:04.908Z,3.35
2023-03-29T12:16:35.120Z,3.20
2023-03-29T12:19:06.008Z,3.60
2023-03-29T12:21:33.961Z,3.00
2023-03-29T12:24:01.195Z,3.30
2023-03-29T12:26:51.789Z,2.90
2023-03-29T12:29:40.215Z,2.88
2023-03-29T12:32:25.824Z,2.95
2023-03-29T12:35:12.022Z,3.65
2023-03-29T12:37:47.115Z,2.88
2023-03-29T12:42:47.361Z,2.72
2023-03-29T12:45:21.430Z,3.60
2023-03-29T12:47:51.511Z,3.15
2023-03-29T12:50:32.440Z,2.83
2023-03-29T12:53:03.472Z,2.97
2023-03-29T12:55:32.841Z,2.40
2023-03-29T12:58:25.544Z,2.70
2023-03-29T13:01:18.744Z,3.25
2023-03-29T13:03:50.101Z,2.90
2023-03-29T13:06:44.569Z,2.55
2023-03-29T13:09:21.540Z,2.97
2023-03-29T13:11:57.069Z,2.92
2023-03-29T13:14:26.458Z,2.40
2023-03-29T13:16:54.335Z,3.15
2023-03-29T13:19:33.428Z,2.50
2023-03-29T13:22:03.517Z,3.00
2023-03-29T13:24:30.806Z,3.00
2023-03-29T13:26:57.948Z,2.35
2023-03-29T13:29:38.017Z,2.60
2023-03-29T13:32:05.406Z,2.78
2023-03-29T13:34:41.009Z,2.80
2023-03-29T13:37:23.668Z,2.13
2023-03-29T13:39:52.926Z,2.45
2023-03-29T13:42:22.203Z,2.50
2023-03-29T13:44:49.439Z,2.55
2023-03-29T13:47:19.450Z,2.45
2023-03-29T13:49:51.772Z,2.10
2023-03-29T13:52:24.987Z,2.50
2023-03-29T13:55:02.278Z,2.20
2023-03-29T13:57:34.463Z,2.33
2023-03-29T14:00:11.772Z,2.38
2023-03-29T14:02:59.120Z,2.53
2023-03-29T14:05:29.532Z,2.22
2023-03-29T14:07:57.725Z,2.47
2023-03-29T14:10:44.511Z,2.60
2023-03-29T14:13:13.667Z,2.33
2023-03-29T14:15:44.033Z,2.10
2023-03-29T14:18:13.873Z,2.15
2023-03-29T14:20:45.019Z,2.25
2023-03-29T14:23:15.636Z,2.53
2023-03-29T14:25:43.282Z,2.33
2023-03-29T14:28:27.036Z,2.13
2023-03-29T14:30:54.667Z,2.00
2023-03-29T14:33:34.455Z,2.50
2023-03-29T14:36:04.229Z,2.13
2023-03-29T14:38:31.982Z,1.70
2023-03-29T14:41:00.182Z,2.30
2023-03-29T14:43:30.416Z,2.28
2023-03-29T14:45:58.491Z,2.08
2023-03-29T14:48:26.410Z,2.10
2023-03-29T14:50:53.730Z,1.90
2023-03-29T14:53:21.913Z,1.80
2023-03-29T14:55:53.610Z,1.83
2023-03-29T14:58:24.771Z,1.90
2023-03-29T15:00:52.828Z,2.15
2023-03-29T15:03:26.204Z,1.98
2023-03-29T15:06:02.330Z,2.00
2023-03-29T15:08:35.873Z,1.77
2023-03-29T15:11:03.479Z,1.88
2023-03-29T15:13:31.312Z,1.67
2023-03-29T15:16:01.689Z,1.77
2023-03-29T15:18:35.175Z,2.10
2023-03-29T15:21:02.737Z,1.80
2023-03-29T15:23:36.026Z,1.88
2023-03-29T15:26:16.554Z,1.88
2023-03-29T15:28:55.432Z,1.73
2023-03-29T15:31:29.031Z,1.98
2023-03-29T15:34:09.235Z,1.80
2023-03-29T15:36:42.102Z,1.70
2023-03-29T15:39:16.290Z,1.70
2023-03-29T15:41:44.614Z,1.77
2023-03-29T15:44:12.797Z,1.73
2023-03-29T15:46:39.988Z,1.80
2023-03-29T15:49:11.181Z,1.90
2023-03-29T15:51:38.419Z,1.83
2023-03-29T15:54:06.372Z,2.05
2023-03-29T15:56:33.750Z,1.27
2023-03-29T15:59:01.664Z,1.70
2023-03-29T16:01:39.645Z,1.63
2023-03-29T16:04:08.154Z,1.50
2023-03-29T16:06:36.231Z,1.70
2023-03-29T16:09:04.369Z,1.45
2023-03-29T16:11:31.511Z,1.90
2023-03-29T16:13:59.093Z,1.60
2023-03-29T16:16:27.127Z,1.70
2023-03-29T16:18:54.333Z,1.67
2023-03-29T16:21:22.785Z,1.30
2023-03-29T16:23:49.914Z,1.50
2023-03-29T16:26:17.670Z,1.60
2023-03-29T16:28:44.811Z,1.60
2023-03-29T16:31:12.556Z,1.60
2023-03-29T16:33:40.775Z,1.60
2023-03-29T16:36:08.507Z,1.60
2023-03-29T16:38:35.692Z,1.67
2023-03-29T16:41:03.088Z,1.40
2023-03-29T16:43:30.569Z,1.55
2023-03-29T16:45:57.801Z,1.80
2023-03-29T16:48:25.059Z,1.67
2023-03-29T16:50:52.285Z,1.50
2023-03-29T16:53:21.434Z,1.50
2023-03-29T16:55:49.089Z,1.38
2023-03-29T16:58:16.342Z,1.60
2023-03-29T17:00:46.402Z,1.55
2023-03-29T17:03:15.304Z,1.65
2023-03-29T17:05:47.458Z,1.40
2023-03-29T17:08:14.737Z,1.52
2023-03-29T17:10:42.343Z,1.50
2023-03-29T17:13:09.803Z,1.40
2023-03-29T17:15:39.554Z,1.75
2023-03-29T17:18:07.696Z,1.40
2023-03-29T17:20:34.908Z,1.50
2023-03-29T17:23:02.102Z,1.20
2023-03-29T17:25:29.237Z,1.30
2023-03-29T17:27:57.178Z,1.50
2023-03-29T17:30:24.295Z,1.20
2023-03-29T17:32:52.352Z,1.38
2023-03-29T17:35:19.578Z,1.20
2023-03-29T17:37:46.706Z,1.33
2023-03-29T17:40:14.192Z,1.20
2023-03-29T17:42:47.794Z,1.52
2023-03-29T17:45:15.630Z,1.45
2023-03-29T17:47:42.953Z,1.30
2023-03-29T17:50:10.866Z,1.40
2023-03-29T17:52:41.372Z,1.40
2023-03-29T17:55:13.597Z,1.50
2023-03-29T17:57:41.514Z,1.35
2023-03-29T18:00:10.646Z,1.40
2023-03-29T18:02:37.905Z,1.42
2023-03-29T18:05:05.674Z,1.40
2023-03-29T18:07:32.899Z,1.30
2023-03-29T18:10:00.114Z,1.20
2023-03-29T18:12:27.900Z,1.40
2023-03-29T18:14:56.876Z,1.30
2023-03-29T18:19:51.599Z,1.27
2023-03-29T18:22:19.685Z,1.05
2023-03-29T18:24:48.202Z,1.27
2023-03-29T18:27:15.992Z,1.30
2023-03-29T18:29:44.628Z,1.70
2023-03-29T18:32:12.212Z,1.40
2023-03-29T18:34:39.527Z,1.60
2023-03-29T18:37:07.490Z,1.52
2023-03-29T18:39:35.818Z,1.10
2023-03-29T18:42:02.937Z,1.30
2023-03-29T18:44:30.145Z,1.50
2023-03-29T18:46:57.508Z,1.45
2023-03-29T18:49:25.762Z,1.40
2023-03-29T18:51:54.306Z,1.35
2023-03-29T18:54:21.696Z,1.45
2023-03-29T18:56:48.868Z,1.40
2023-03-29T18:59:17.165Z,1.35
2023-03-29T19:01:44.529Z,1.50
2023-03-29T19:04:13.346Z,1.38
2023-03-29T19:06:42.007Z,1.83
2023-03-29T19:09:09.874Z,1.55
2023-03-29T19:11:37.031Z,1.63
2023-03-29T19:14:08.233Z,1.70
2023-03-29T19:16:35.916Z,1.52
2023-03-29T19:19:04.911Z,1.52
2023-03-29T19:24:00.988Z,1.60
2023-03-29T19:26:29.434Z,1.60
2023-03-29T19:28:57.056Z,1.42
2023-03-29T19:31:24.340Z,1.60
2023-03-29T19:33:51.536Z,1.50
2023-03-29T19:36:18.741Z,1.58
2023-03-29T19:38:46.004Z,1.50
2023-03-29T19:41:13.343Z,1.50
2023-03-29T19:43:40.536Z,1.85
2023-03-29T19:46:10.502Z,1.60
2023-03-29T19:48:38.758Z,1.92
2023-03-29T19:51:06.692Z,1.67
2023-03-29T19:53:38.248Z,1.75
2023-03-29T19:56:07.684Z,1.70
2023-03-29T20:01:02.296Z,1.55
2023-03-29T20:03:29.884Z,1.60
2023-03-29T20:05:57.384Z,1.98
2023-03-29T20:08:24.965Z,2.17
2023-03-29T20:10:58.801Z,2.10
2023-03-29T20:13:37.451Z,2.00
2023-03-29T20:16:07.087Z,2.97
2023-03-29T20:18:34.290Z,2.10
2023-03-29T20:21:02.130Z,1.88
2023-03-29T20:23:29.982Z,2.22
2023-03-29T20:25:57.194Z,2.10
2023-03-29T20:28:24.901Z,2.10
2023-03-29T20:30:52.500Z,2.00
2023-03-29T20:33:20.232Z,2.10
2023-03-29T20:35:48.050Z,2.55
2023-03-29T20:38:15.914Z,1.95
2023-03-29T20:40:43.047Z,2.05
2023-03-29T20:43:13.289Z,1.90
2023-03-29T20:45:52.577Z,1.95
2023-03-29T20:48:23.092Z,1.90
2023-03-29T20:50:50.795Z,2.15
2023-03-29T20:53:18.372Z,2.00
2023-03-29T20:55:45.679Z,1.85
2023-03-29T20:58:12.922Z,1.90
2023-03-29T21:00:40.396Z,1.95
2023-03-29T21:03:08.614Z,1.90
2023-03-29T21:05:36.220Z,2.28
2023-03-29T21:08:04.233Z,2.45
2023-03-29T21:10:31.658Z,1.95
2023-03-29T21:13:02.644Z,1.98
2023-03-29T21:15:31.205Z,2.55
2023-03-29T21:17:58.753Z,1.92
2023-03-29T21:20:25.994Z,2.13
2023-03-29T21:22:53.115Z,2.03
2023-03-29T21:25:20.316Z,2.13
2023-03-29T21:27:47.484Z,1.80
2023-03-29T21:30:14.907Z,1.83
2023-03-29T21:32:42.102Z,1.85
2023-03-29T21:35:09.678Z,1.90
2023-03-29T21:37:36.840Z,1.85
2023-03-29T21:40:09.162Z,1.65
2023-03-29T21:42:36.328Z,1.60
2023-03-29T21:45:03.946Z,1.75
2023-03-29T21:47:31.435Z,1.80
2023-03-29T21:49:58.683Z,1.80
2023-03-29T21:52:25.965Z,2.08
2023-03-29T21:54:53.103Z,1.95
2023-03-29T21:57:20.394Z,1.73
2023-03-29T21:59:47.775Z,1.70
2023-03-29T22:02:15.279Z,1.58
2023-03-29T22:04:42.450Z,1.55
2023-03-29T22:07:10.627Z,1.92
2023-03-29T22:09:37.877Z,1.80
2023-03-29T22:12:05.116Z,1.90
2023-03-29T22:14:35.207Z,1.88
2023-03-29T22:17:05.664Z,1.95
2023-03-29T22:19:32.764Z,1.52
2023-03-29T22:22:01.317Z,1.50
2023-03-29T22:24:29.085Z,1.75
2023-03-29T22:26:56.287Z,1.42
2023-03-29T22:29:23.488Z,2.38
2023-03-29T22:31:50.828Z,1.60
2023-03-29T22:34:18.040Z,1.80
2023-03-29T22:36:45.369Z,1.67
2023-03-29T22:39:13.442Z,1.70
2023-03-29T22:41:41.141Z,1.55
2023-03-29T22:44:08.308Z,1.98
2023-03-29T22:46:35.674Z,1.60
2023-03-29T22:49:02.919Z,1.55
2023-03-29T22:51:30.057Z,1.85
2023-03-29T22:53:57.240Z,1.80
2023-03-29T22:56:24.830Z,1.73
2023-03-29T22:58:51.961Z,1.60
2023-03-29T23:01:19.285Z,1.80
2023-03-29T23:03:46.405Z,1.48
2023-03-29T23:06:13.746Z,1.40
2023-03-29T23:08:41.059Z,1.50
2023-03-29T23:11:09.582Z,1.60
2023-03-29T23:13:36.769Z,1.80
2023-03-29T23:16:04.948Z,1.88
2023-03-29T23:18:34.532Z,1.55
2023-03-29T23:21:02.551Z,1.50
2023-03-29T23:23:29.945Z,1.50
2023-03-29T23:25:57.252Z,1.65
2023-03-29T23:28:27.899Z,1.63
2023-03-29T23:31:18.134Z,1.60
2023-03-29T23:33:45.486Z,1.50
2023-03-29T23:36:14.558Z,1.60
2023-03-29T23:38:42.485Z,1.40
2023-03-29T23:41:12.658Z,1.95
2023-03-29T23:43:40.958Z,1.52
2023-03-29T23:46:10.583Z,1.70
2023-03-29T23:48:37.971Z,1.42
2023-03-29T23:51:07.777Z,1.20
2023-03-29T23:53:34.896Z,1.58
2023-03-29T23:56:05.004Z,1.55
2023-03-29T23:58:33.448Z,1.52
